sensor_id;sensor_type;location;lat;lon;timestamp;temperature;humidity
12769;DHT22;6448;48.916;8.990;2023-07-31T00:00:42;23.50;45.50
12769;DHT22;6448;48.916;8.990;2023-07-31T00:01:43;23.50;45.40
12769;DHT22;6448;48.916;8.990;2023-07-31T00:02:45;23.50;45.40
12769;DHT22;6448;48.916;8.990;2023-07-31T00:03:46;23.50;45.40
12769;DHT22;6448;48.916;8.990;2023-07-31T00:04:48;23.50;45.50
12769;DHT22;6448;48.916;8.990;2023-07-31T00:05:49;23.40;45.60
12769;DHT22;6448;48.916;8.990;2023-07-31T00:06:51;23.40;45.50
12769;DHT22;6448;48.916;8.990;2023-07-31T00:07:52;23.40;45.50
12769;DHT22;6448;48.916;8.990;2023-07-31T00:08:54;23.40;45.70
12769;DHT22;6448;48.916;8.990;2023-07-31T00:09:56;23.40;45.70
12769;DHT22;6448;48.916;8.990;2023-07-31T00:10:57;23.40;45.80
12769;DHT22;6448;48.916;8.990;2023-07-31T00:11:57;23.40;45.80
12769;DHT22;6448;48.916;8.990;2023-07-31T00:12:59;23.40;45.90
12769;DHT22;6448;48.916;8.990;2023-07-31T00:14:00;23.30;45.90
12769;DHT22;6448;48.916;8.990;2023-07-31T00:15:02;23.40;46.00
12769;DHT22;6448;48.916;8.990;2023-07-31T00:16:04;23.30;46.00
12769;DHT22;6448;48.916;8.990;2023-07-31T00:17:06;23.40;46.10
12769;DHT22;6448;48.916;8.990;2023-07-31T00:18:07;23.30;46.10
12769;DHT22;6448;48.916;8.990;2023-07-31T00:19:09;23.40;46.20
12769;DHT22;6448;48.916;8.990;2023-07-31T00:20:10;23.30;46.20
12769;DHT22;6448;48.916;8.990;2023-07-31T00:21:12;23.30;46.30
12769;DHT22;6448;48.916;8.990;2023-07-31T00:22:13;23.30;46.40
12769;DHT22;6448;48.916;8.990;2023-07-31T00:23:14;23.30;46.50
12769;DHT22;6448;48.916;8.990;2023-07-31T00:24:15;23.30;46.60
12769;DHT22;6448;48.916;8.990;2023-07-31T00:25:16;23.40;46.70
12769;DHT22;6448;48.916;8.990;2023-07-31T00:26:18;23.30;46.70
12769;DHT22;6448;48.916;8.990;2023-07-31T00:27:19;23.40;46.80
12769;DHT22;6448;48.916;8.990;2023-07-31T00:28:20;23.30;46.80
12769;DHT22;6448;48.916;8.990;2023-07-31T00:29:21;23.30;46.90
12769;DHT22;6448;48.916;8.990;2023-07-31T00:30:23;23.30;47.00
12769;DHT22;6448;48.916;8.990;2023-07-31T00:31:27;23.30;47.00
12769;DHT22;6448;48.916;8.990;2023-07-31T00:32:29;23.30;47.00
12769;DHT22;6448;48.916;8.990;2023-07-31T00:33:31;23.30;47.00
12769;DHT22;6448;48.916;8.990;2023-07-31T00:34:33;23.40;47.20
12769;DHT22;6448;48.916;8.990;2023-07-31T00:35:34;23.30;47.10
12769;DHT22;6448;48.916;8.990;2023-07-31T00:36:36;23.30;47.20
12769;DHT22;6448;48.916;8.990;2023-07-31T00:37:37;23.30;47.10
12769;DHT22;6448;48.916;8.990;2023-07-31T00:38:37;23.30;47.20
12769;DHT22;6448;48.916;8.990;2023-07-31T00:39:41;23.30;47.30
12769;DHT22;6448;48.916;8.990;2023-07-31T00:40:42;23.30;47.30
12769;DHT22;6448;48.916;8.990;2023-07-31T00:41:42;23.30;47.30
12769;DHT22;6448;48.916;8.990;2023-07-31T00:42:44;23.30;47.30
12769;DHT22;6448;48.916;8.990;2023-07-31T00:43:45;23.30;47.30
12769;DHT22;6448;48.916;8.990;2023-07-31T00:44:47;23.30;47.30
12769;DHT22;6448;48.916;8.990;2023-07-31T00:45:49;23.30;47.20
12769;DHT22;6448;48.916;8.990;2023-07-31T00:46:53;23.30;47.30
12769;DHT22;6448;48.916;8.990;2023-07-31T00:47:54;23.30;47.30
12769;DHT22;6448;48.916;8.990;2023-07-31T00:48:56;23.20;47.30
12769;DHT22;6448;48.916;8.990;2023-07-31T00:49:58;23.20;47.30
12769;DHT22;6448;48.916;8.990;2023-07-31T00:51:00;23.30;47.30
12769;DHT22;6448;48.916;8.990;2023-07-31T00:52:01;23.20;47.30
12769;DHT22;6448;48.916;8.990;2023-07-31T00:53:03;23.20;47.30
12769;DHT22;6448;48.916;8.990;2023-07-31T00:54:05;23.20;47.30
12769;DHT22;6448;48.916;8.990;2023-07-31T00:55:08;23.30;47.30
12769;DHT22;6448;48.916;8.990;2023-07-31T00:56:09;23.20;47.30
12769;DHT22;6448;48.916;8.990;2023-07-31T00:57:13;23.20;47.30
12769;DHT22;6448;48.916;8.990;2023-07-31T00:58:13;23.20;47.20
12769;DHT22;6448;48.916;8.990;2023-07-31T00:59:14;23.20;47.20
12769;DHT22;6448;48.916;8.990;2023-07-31T01:00:16;23.20;47.20
12769;DHT22;6448;48.916;8.990;2023-07-31T01:01:17;23.20;47.10
12769;DHT22;6448;48.916;8.990;2023-07-31T01:02:20;23.10;47.10
12769;DHT22;6448;48.916;8.990;2023-07-31T01:03:21;23.10;47.20
12769;DHT22;6448;48.916;8.990;2023-07-31T01:04:23;23.10;47.10
12769;DHT22;6448;48.916;8.990;2023-07-31T01:05:32;23.10;47.20
12769;DHT22;6448;48.916;8.990;2023-07-31T01:06:37;23.10;47.50
12769;DHT22;6448;48.916;8.990;2023-07-31T01:07:45;23.10;47.20
12769;DHT22;6448;48.916;8.990;2023-07-31T01:08:58;23.10;47.90
12769;DHT22;6448;48.916;8.990;2023-07-31T01:10:07;23.10;47.40
12769;DHT22;6448;48.916;8.990;2023-07-31T01:11:15;23.10;47.40
12769;DHT22;6448;48.916;8.990;2023-07-31T01:12:17;23.00;47.30
12769;DHT22;6448;48.916;8.990;2023-07-31T01:13:19;23.10;47.40
12769;DHT22;6448;48.916;8.990;2023-07-31T01:14:21;23.10;47.50
12769;DHT22;6448;48.916;8.990;2023-07-31T01:15:23;23.10;47.50
12769;DHT22;6448;48.916;8.990;2023-07-31T01:16:25;23.10;47.60
12769;DHT22;6448;48.916;8.990;2023-07-31T01:17:28;23.10;47.60
12769;DHT22;6448;48.916;8.990;2023-07-31T01:18:29;23.00;47.60
12769;DHT22;6448;48.916;8.990;2023-07-31T01:19:31;23.10;47.70
12769;DHT22;6448;48.916;8.990;2023-07-31T01:20:33;23.00;47.70
12769;DHT22;6448;48.916;8.990;2023-07-31T01:21:56;23.10;47.70
12769;DHT22;6448;48.916;8.990;2023-07-31T01:23:14;23.00;47.60
12769;DHT22;6448;48.916;8.990;2023-07-31T01:24:29;23.10;47.60
12769;DHT22;6448;48.916;8.990;2023-07-31T01:25:54;23.00;47.70
12769;DHT22;6448;48.916;8.990;2023-07-31T01:27:06;23.00;47.60
12769;DHT22;6448;48.916;8.990;2023-07-31T01:28:11;23.00;47.50
12769;DHT22;6448;48.916;8.990;2023-07-31T01:29:20;23.10;47.60
12769;DHT22;6448;48.916;8.990;2023-07-31T01:30:26;23.00;47.50
12769;DHT22;6448;48.916;8.990;2023-07-31T01:31:30;23.10;47.60
12769;DHT22;6448;48.916;8.990;2023-07-31T01:32:32;23.00;47.50
12769;DHT22;6448;48.916;8.990;2023-07-31T01:33:36;23.10;47.50
12769;DHT22;6448;48.916;8.990;2023-07-31T01:34:39;23.00;47.50
12769;DHT22;6448;48.916;8.990;2023-07-31T01:35:44;23.00;47.50
12769;DHT22;6448;48.916;8.990;2023-07-31T01:36:45;23.10;47.60
12769;DHT22;6448;48.916;8.990;2023-07-31T01:37:47;23.00;47.50
12769;DHT22;6448;48.916;8.990;2023-07-31T01:38:48;23.00;47.40
12769;DHT22;6448;48.916;8.990;2023-07-31T01:39:52;23.00;47.30
12769;DHT22;6448;48.916;8.990;2023-07-31T01:40:54;23.00;47.30
12769;DHT22;6448;48.916;8.990;2023-07-31T01:41:56;23.00;47.30
12769;DHT22;6448;48.916;8.990;2023-07-31T01:42:57;23.00;47.10
12769;DHT22;6448;48.916;8.990;2023-07-31T01:43:58;23.00;47.10
12769;DHT22;6448;48.916;8.990;2023-07-31T01:44:59;23.00;47.10
12769;DHT22;6448;48.916;8.990;2023-07-31T01:46:01;23.00;47.20
12769;DHT22;6448;48.916;8.990;2023-07-31T01:47:02;23.00;47.20
12769;DHT22;6448;48.916;8.990;2023-07-31T01:48:04;23.00;47.30
12769;DHT22;6448;48.916;8.990;2023-07-31T01:49:05;23.00;47.30
12769;DHT22;6448;48.916;8.990;2023-07-31T01:50:08;23.00;47.30
12769;DHT22;6448;48.916;8.990;2023-07-31T01:51:09;23.00;47.10
12769;DHT22;6448;48.916;8.990;2023-07-31T01:52:10;23.00;47.00
12769;DHT22;6448;48.916;8.990;2023-07-31T01:53:11;23.00;47.70
12769;DHT22;6448;48.916;8.990;2023-07-31T01:54:13;23.00;47.00
12769;DHT22;6448;48.916;8.990;2023-07-31T01:55:14;23.00;47.00
12769;DHT22;6448;48.916;8.990;2023-07-31T01:56:19;23.00;47.10
12769;DHT22;6448;48.916;8.990;2023-07-31T01:57:19;23.00;47.10
12769;DHT22;6448;48.916;8.990;2023-07-31T01:58:21;23.00;47.20
12769;DHT22;6448;48.916;8.990;2023-07-31T01:59:22;23.00;47.20
12769;DHT22;6448;48.916;8.990;2023-07-31T02:00:24;23.00;47.10
12769;DHT22;6448;48.916;8.990;2023-07-31T02:01:24;23.00;47.10
12769;DHT22;6448;48.916;8.990;2023-07-31T02:02:26;23.00;47.20
12769;DHT22;6448;48.916;8.990;2023-07-31T02:03:27;23.00;47.20
12769;DHT22;6448;48.916;8.990;2023-07-31T02:04:29;22.90;47.10
12769;DHT22;6448;48.916;8.990;2023-07-31T02:05:29;22.90;47.80
12769;DHT22;6448;48.916;8.990;2023-07-31T02:06:31;22.90;47.30
12769;DHT22;6448;48.916;8.990;2023-07-31T02:07:32;22.90;47.30
12769;DHT22;6448;48.916;8.990;2023-07-31T02:08:34;22.90;47.40
12769;DHT22;6448;48.916;8.990;2023-07-31T02:09:34;22.80;47.40
12769;DHT22;6448;48.916;8.990;2023-07-31T02:10:36;22.80;47.40
12769;DHT22;6448;48.916;8.990;2023-07-31T02:11:38;22.80;47.40
12769;DHT22;6448;48.916;8.990;2023-07-31T02:12:40;22.80;47.40
12769;DHT22;6448;48.916;8.990;2023-07-31T02:13:41;22.80;47.40
12769;DHT22;6448;48.916;8.990;2023-07-31T02:14:43;22.90;47.50
12769;DHT22;6448;48.916;8.990;2023-07-31T02:15:45;22.80;47.60
12769;DHT22;6448;48.916;8.990;2023-07-31T02:16:47;22.80;47.60
12769;DHT22;6448;48.916;8.990;2023-07-31T02:17:48;22.80;47.70
12769;DHT22;6448;48.916;8.990;2023-07-31T02:18:49;22.80;47.70
12769;DHT22;6448;48.916;8.990;2023-07-31T02:19:50;22.70;47.60
12769;DHT22;6448;48.916;8.990;2023-07-31T02:20:52;22.80;47.70
12769;DHT22;6448;48.916;8.990;2023-07-31T02:21:53;22.70;47.60
12769;DHT22;6448;48.916;8.990;2023-07-31T02:22:57;22.70;47.60
12769;DHT22;6448;48.916;8.990;2023-07-31T02:23:58;22.80;47.70
12769;DHT22;6448;48.916;8.990;2023-07-31T02:24:59;22.70;47.60
12769;DHT22;6448;48.916;8.990;2023-07-31T02:26:00;22.70;47.60
12769;DHT22;6448;48.916;8.990;2023-07-31T02:27:04;22.70;47.50
12769;DHT22;6448;48.916;8.990;2023-07-31T02:28:05;22.70;47.60
12769;DHT22;6448;48.916;8.990;2023-07-31T02:29:07;22.70;47.60
12769;DHT22;6448;48.916;8.990;2023-07-31T02:30:09;22.70;47.60
12769;DHT22;6448;48.916;8.990;2023-07-31T02:31:09;22.70;47.60
12769;DHT22;6448;48.916;8.990;2023-07-31T02:32:11;22.70;47.60
12769;DHT22;6448;48.916;8.990;2023-07-31T02:33:12;22.70;47.60
12769;DHT22;6448;48.916;8.990;2023-07-31T02:34:14;22.70;47.60
12769;DHT22;6448;48.916;8.990;2023-07-31T02:35:15;22.70;47.60
12769;DHT22;6448;48.916;8.990;2023-07-31T02:36:16;22.70;47.60
12769;DHT22;6448;48.916;8.990;2023-07-31T02:37:17;22.60;47.60
12769;DHT22;6448;48.916;8.990;2023-07-31T02:38:20;22.60;47.70
12769;DHT22;6448;48.916;8.990;2023-07-31T02:39:22;22.70;47.80
12769;DHT22;6448;48.916;8.990;2023-07-31T02:40:24;22.70;47.80
12769;DHT22;6448;48.916;8.990;2023-07-31T02:41:25;22.70;47.80
12769;DHT22;6448;48.916;8.990;2023-07-31T02:42:28;22.70;47.70
12769;DHT22;6448;48.916;8.990;2023-07-31T02:43:29;22.70;47.60
12769;DHT22;6448;48.916;8.990;2023-07-31T02:44:29;22.70;47.60
12769;DHT22;6448;48.916;8.990;2023-07-31T02:45:31;22.70;47.60
12769;DHT22;6448;48.916;8.990;2023-07-31T02:46:32;22.70;47.50
12769;DHT22;6448;48.916;8.990;2023-07-31T02:47:34;22.70;47.40
12769;DHT22;6448;48.916;8.990;2023-07-31T02:48:35;22.60;47.30
12769;DHT22;6448;48.916;8.990;2023-07-31T02:49:37;22.70;47.30
12769;DHT22;6448;48.916;8.990;2023-07-31T02:50:38;22.60;47.30
12769;DHT22;6448;48.916;8.990;2023-07-31T02:51:40;22.70;47.30
12769;DHT22;6448;48.916;8.990;2023-07-31T02:52:40;22.70;47.40
12769;DHT22;6448;48.916;8.990;2023-07-31T02:53:42;22.60;47.40
12769;DHT22;6448;48.916;8.990;2023-07-31T02:54:43;22.60;47.40
12769;DHT22;6448;48.916;8.990;2023-07-31T02:55:45;22.60;47.40
12769;DHT22;6448;48.916;8.990;2023-07-31T02:56:46;22.60;47.30
12769;DHT22;6448;48.916;8.990;2023-07-31T02:57:48;22.60;47.40
12769;DHT22;6448;48.916;8.990;2023-07-31T02:58:50;22.60;47.30
12769;DHT22;6448;48.916;8.990;2023-07-31T02:59:51;22.60;47.30
12769;DHT22;6448;48.916;8.990;2023-07-31T03:00:52;22.60;47.20
12769;DHT22;6448;48.916;8.990;2023-07-31T03:01:53;22.60;47.20
12769;DHT22;6448;48.916;8.990;2023-07-31T03:02:54;22.50;47.10
12769;DHT22;6448;48.916;8.990;2023-07-31T03:03:56;22.60;47.20
12769;DHT22;6448;48.916;8.990;2023-07-31T03:04:57;22.50;47.20
12769;DHT22;6448;48.916;8.990;2023-07-31T03:06:00;22.50;47.30
12769;DHT22;6448;48.916;8.990;2023-07-31T03:07:01;22.50;47.40
12769;DHT22;6448;48.916;8.990;2023-07-31T03:08:02;22.50;47.50
12769;DHT22;6448;48.916;8.990;2023-07-31T03:09:04;22.50;47.50
12769;DHT22;6448;48.916;8.990;2023-07-31T03:10:06;22.50;47.60
12769;DHT22;6448;48.916;8.990;2023-07-31T03:11:08;22.40;47.60
12769;DHT22;6448;48.916;8.990;2023-07-31T03:12:08;22.50;47.60
12769;DHT22;6448;48.916;8.990;2023-07-31T03:13:11;22.40;47.60
12769;DHT22;6448;48.916;8.990;2023-07-31T03:14:12;22.50;47.60
12769;DHT22;6448;48.916;8.990;2023-07-31T03:15:13;22.50;47.60
12769;DHT22;6448;48.916;8.990;2023-07-31T03:16:15;22.40;47.60
12769;DHT22;6448;48.916;8.990;2023-07-31T03:17:16;22.50;47.70
12769;DHT22;6448;48.916;8.990;2023-07-31T03:18:18;22.40;47.60
12769;DHT22;6448;48.916;8.990;2023-07-31T03:19:18;22.50;47.70
12769;DHT22;6448;48.916;8.990;2023-07-31T03:20:19;22.50;47.80
12769;DHT22;6448;48.916;8.990;2023-07-31T03:21:21;22.50;47.80
12769;DHT22;6448;48.916;8.990;2023-07-31T03:22:22;22.50;47.80
12769;DHT22;6448;48.916;8.990;2023-07-31T03:23:23;22.50;47.80
12769;DHT22;6448;48.916;8.990;2023-07-31T03:24:25;22.50;47.80
12769;DHT22;6448;48.916;8.990;2023-07-31T03:25:26;22.50;47.80
12769;DHT22;6448;48.916;8.990;2023-07-31T03:26:30;22.60;47.80
12769;DHT22;6448;48.916;8.990;2023-07-31T03:27:31;22.50;47.70
12769;DHT22;6448;48.916;8.990;2023-07-31T03:28:36;22.50;47.70
12769;DHT22;6448;48.916;8.990;2023-07-31T03:29:37;22.50;47.70
12769;DHT22;6448;48.916;8.990;2023-07-31T03:30:39;22.50;47.70
12769;DHT22;6448;48.916;8.990;2023-07-31T03:31:39;22.60;47.80
12769;DHT22;6448;48.916;8.990;2023-07-31T03:32:41;22.50;47.80
12769;DHT22;6448;48.916;8.990;2023-07-31T03:33:42;22.50;47.80
12769;DHT22;6448;48.916;8.990;2023-07-31T03:34:43;22.60;47.90
12769;DHT22;6448;48.916;8.990;2023-07-31T03:35:44;22.60;47.90
12769;DHT22;6448;48.916;8.990;2023-07-31T03:36:46;22.60;47.90
12769;DHT22;6448;48.916;8.990;2023-07-31T03:37:48;22.60;47.90
12769;DHT22;6448;48.916;8.990;2023-07-31T03:38:48;22.60;47.90
12769;DHT22;6448;48.916;8.990;2023-07-31T03:39:50;22.60;47.70
12769;DHT22;6448;48.916;8.990;2023-07-31T03:40:51;22.60;47.60
12769;DHT22;6448;48.916;8.990;2023-07-31T03:41:53;22.60;47.60
12769;DHT22;6448;48.916;8.990;2023-07-31T03:42:53;22.60;47.60
12769;DHT22;6448;48.916;8.990;2023-07-31T03:43:56;22.60;47.60
12769;DHT22;6448;48.916;8.990;2023-07-31T03:44:58;22.60;47.60
12769;DHT22;6448;48.916;8.990;2023-07-31T03:45:59;22.60;47.70
12769;DHT22;6448;48.916;8.990;2023-07-31T03:47:00;22.60;47.70
12769;DHT22;6448;48.916;8.990;2023-07-31T03:48:03;22.60;47.60
12769;DHT22;6448;48.916;8.990;2023-07-31T03:49:05;22.60;47.70
12769;DHT22;6448;48.916;8.990;2023-07-31T03:50:07;22.60;47.70
12769;DHT22;6448;48.916;8.990;2023-07-31T03:51:08;22.60;47.60
12769;DHT22;6448;48.916;8.990;2023-07-31T03:52:10;22.60;47.50
12769;DHT22;6448;48.916;8.990;2023-07-31T03:53:10;22.60;47.60
12769;DHT22;6448;48.916;8.990;2023-07-31T03:54:12;22.60;47.60
12769;DHT22;6448;48.916;8.990;2023-07-31T03:55:13;22.60;47.60
12769;DHT22;6448;48.916;8.990;2023-07-31T03:56:15;22.60;47.60
12769;DHT22;6448;48.916;8.990;2023-07-31T03:57:16;22.60;47.60
12769;DHT22;6448;48.916;8.990;2023-07-31T03:58:17;22.60;47.50
12769;DHT22;6448;48.916;8.990;2023-07-31T03:59:20;22.60;47.60
12769;DHT22;6448;48.916;8.990;2023-07-31T04:00:21;22.60;47.60
12769;DHT22;6448;48.916;8.990;2023-07-31T04:01:23;22.60;47.60
12769;DHT22;6448;48.916;8.990;2023-07-31T04:02:24;22.60;47.60
12769;DHT22;6448;48.916;8.990;2023-07-31T04:03:25;22.60;47.70
12769;DHT22;6448;48.916;8.990;2023-07-31T04:04:26;22.60;47.60
12769;DHT22;6448;48.916;8.990;2023-07-31T04:05:30;22.60;47.60
12769;DHT22;6448;48.916;8.990;2023-07-31T04:06:30;22.60;47.50
12769;DHT22;6448;48.916;8.990;2023-07-31T04:07:32;22.50;47.30
12769;DHT22;6448;48.916;8.990;2023-07-31T04:08:33;22.60;47.50
12769;DHT22;6448;48.916;8.990;2023-07-31T04:09:34;22.60;47.50
12769;DHT22;6448;48.916;8.990;2023-07-31T04:10:36;22.60;47.50
12769;DHT22;6448;48.916;8.990;2023-07-31T04:11:36;22.60;47.60
12769;DHT22;6448;48.916;8.990;2023-07-31T04:12:39;22.60;47.60
12769;DHT22;6448;48.916;8.990;2023-07-31T04:13:40;22.60;47.60
12769;DHT22;6448;48.916;8.990;2023-07-31T04:14:43;22.60;47.60
12769;DHT22;6448;48.916;8.990;2023-07-31T04:15:48;22.60;47.60
12769;DHT22;6448;48.916;8.990;2023-07-31T04:16:50;22.60;47.60
12769;DHT22;6448;48.916;8.990;2023-07-31T04:17:51;22.60;47.60
12769;DHT22;6448;48.916;8.990;2023-07-31T04:18:53;22.60;47.60
12769;DHT22;6448;48.916;8.990;2023-07-31T04:19:54;22.60;47.60
12769;DHT22;6448;48.916;8.990;2023-07-31T04:20:55;22.50;47.60
12769;DHT22;6448;48.916;8.990;2023-07-31T04:21:56;22.60;47.70
12769;DHT22;6448;48.916;8.990;2023-07-31T04:22:58;22.60;47.80
12769;DHT22;6448;48.916;8.990;2023-07-31T04:23:59;22.60;47.80
12769;DHT22;6448;48.916;8.990;2023-07-31T04:25:01;22.60;47.80
12769;DHT22;6448;48.916;8.990;2023-07-31T04:26:01;22.60;47.80
12769;DHT22;6448;48.916;8.990;2023-07-31T04:27:04;22.60;47.80
12769;DHT22;6448;48.916;8.990;2023-07-31T04:28:04;22.60;47.80
12769;DHT22;6448;48.916;8.990;2023-07-31T04:29:06;22.60;47.80
12769;DHT22;6448;48.916;8.990;2023-07-31T04:30:09;22.60;47.80
12769;DHT22;6448;48.916;8.990;2023-07-31T04:31:11;22.60;47.80
12769;DHT22;6448;48.916;8.990;2023-07-31T04:32:12;22.70;47.80
12769;DHT22;6448;48.916;8.990;2023-07-31T04:33:16;22.60;48.40
12769;DHT22;6448;48.916;8.990;2023-07-31T04:34:16;22.60;47.80
12769;DHT22;6448;48.916;8.990;2023-07-31T04:35:18;22.60;47.80
12769;DHT22;6448;48.916;8.990;2023-07-31T04:36:19;22.60;47.90
12769;DHT22;6448;48.916;8.990;2023-07-31T04:37:21;22.60;47.90
12769;DHT22;6448;48.916;8.990;2023-07-31T04:38:22;22.60;47.90
12769;DHT22;6448;48.916;8.990;2023-07-31T04:39:23;22.60;47.90
12769;DHT22;6448;48.916;8.990;2023-07-31T04:40:24;22.60;47.90
12769;DHT22;6448;48.916;8.990;2023-07-31T04:41:26;22.60;47.90
12769;DHT22;6448;48.916;8.990;2023-07-31T04:42:27;22.60;47.90
12769;DHT22;6448;48.916;8.990;2023-07-31T04:43:29;22.60;48.00
12769;DHT22;6448;48.916;8.990;2023-07-31T04:44:29;22.60;48.00
12769;DHT22;6448;48.916;8.990;2023-07-31T04:45:33;22.60;48.00
12769;DHT22;6448;48.916;8.990;2023-07-31T04:46:33;22.60;48.00
12769;DHT22;6448;48.916;8.990;2023-07-31T04:47:35;22.60;48.00
12769;DHT22;6448;48.916;8.990;2023-07-31T04:48:36;22.60;47.90
12769;DHT22;6448;48.916;8.990;2023-07-31T04:49:38;22.70;48.60
12769;DHT22;6448;48.916;8.990;2023-07-31T04:50:38;22.60;48.00
12769;DHT22;6448;48.916;8.990;2023-07-31T04:51:40;22.60;48.00
12769;DHT22;6448;48.916;8.990;2023-07-31T04:52:41;22.70;48.00
12769;DHT22;6448;48.916;8.990;2023-07-31T04:53:43;22.70;48.00
12769;DHT22;6448;48.916;8.990;2023-07-31T04:54:43;22.70;48.00
12769;DHT22;6448;48.916;8.990;2023-07-31T04:55:45;22.70;48.00
12769;DHT22;6448;48.916;8.990;2023-07-31T04:56:46;22.70;47.80
12769;DHT22;6448;48.916;8.990;2023-07-31T04:57:48;22.70;47.90
12769;DHT22;6448;48.916;8.990;2023-07-31T04:58:49;22.70;47.70
12769;DHT22;6448;48.916;8.990;2023-07-31T04:59:50;22.70;47.60
12769;DHT22;6448;48.916;8.990;2023-07-31T05:00:53;22.70;47.60
12769;DHT22;6448;48.916;8.990;2023-07-31T05:01:54;22.70;47.60
12769;DHT22;6448;48.916;8.990;2023-07-31T05:02:56;22.70;47.60
12769;DHT22;6448;48.916;8.990;2023-07-31T05:03:56;22.70;47.70
12769;DHT22;6448;48.916;8.990;2023-07-31T05:04:58;22.60;47.60
12769;DHT22;6448;48.916;8.990;2023-07-31T05:05:59;22.70;47.80
12769;DHT22;6448;48.916;8.990;2023-07-31T05:07:01;22.60;47.70
12769;DHT22;6448;48.916;8.990;2023-07-31T05:08:01;22.70;47.80
12769;DHT22;6448;48.916;8.990;2023-07-31T05:09:03;22.60;47.80
12769;DHT22;6448;48.916;8.990;2023-07-31T05:10:05;22.60;47.80
12769;DHT22;6448;48.916;8.990;2023-07-31T05:11:07;22.60;47.70
12769;DHT22;6448;48.916;8.990;2023-07-31T05:12:08;22.60;47.70
12769;DHT22;6448;48.916;8.990;2023-07-31T05:13:09;22.60;47.80
12769;DHT22;6448;48.916;8.990;2023-07-31T05:14:10;22.60;47.80
12769;DHT22;6448;48.916;8.990;2023-07-31T05:15:12;22.60;47.70
12769;DHT22;6448;48.916;8.990;2023-07-31T05:16:14;22.60;47.70
12769;DHT22;6448;48.916;8.990;2023-07-31T05:17:16;22.60;47.80
12769;DHT22;6448;48.916;8.990;2023-07-31T05:18:17;22.60;47.80
12769;DHT22;6448;48.916;8.990;2023-07-31T05:19:18;22.60;47.70
12769;DHT22;6448;48.916;8.990;2023-07-31T05:20:20;22.60;47.80
12769;DHT22;6448;48.916;8.990;2023-07-31T05:21:21;22.60;47.80
12769;DHT22;6448;48.916;8.990;2023-07-31T05:22:22;22.60;47.80
12769;DHT22;6448;48.916;8.990;2023-07-31T05:23:24;22.60;47.80
12769;DHT22;6448;48.916;8.990;2023-07-31T05:24:25;22.60;47.80
12769;DHT22;6448;48.916;8.990;2023-07-31T05:25:26;22.60;47.90
12769;DHT22;6448;48.916;8.990;2023-07-31T05:26:27;22.60;47.80
12769;DHT22;6448;48.916;8.990;2023-07-31T05:27:30;22.60;47.80
12769;DHT22;6448;48.916;8.990;2023-07-31T05:28:30;22.60;47.80
12769;DHT22;6448;48.916;8.990;2023-07-31T05:29:32;22.60;47.70
12769;DHT22;6448;48.916;8.990;2023-07-31T05:30:33;22.60;47.70
12769;DHT22;6448;48.916;8.990;2023-07-31T05:31:36;22.60;47.70
12769;DHT22;6448;48.916;8.990;2023-07-31T05:32:38;22.60;47.70
12769;DHT22;6448;48.916;8.990;2023-07-31T05:33:40;22.50;47.70
12769;DHT22;6448;48.916;8.990;2023-07-31T05:34:41;22.50;48.40
12769;DHT22;6448;48.916;8.990;2023-07-31T05:35:43;22.50;47.80
12769;DHT22;6448;48.916;8.990;2023-07-31T05:36:45;22.50;47.80
12769;DHT22;6448;48.916;8.990;2023-07-31T05:37:47;22.60;47.90
12769;DHT22;6448;48.916;8.990;2023-07-31T05:38:47;22.50;47.90
12769;DHT22;6448;48.916;8.990;2023-07-31T05:39:49;22.50;48.00
12769;DHT22;6448;48.916;8.990;2023-07-31T05:40:50;22.50;48.10
12769;DHT22;6448;48.916;8.990;2023-07-31T05:41:52;22.50;48.10
12769;DHT22;6448;48.916;8.990;2023-07-31T05:42:52;22.50;48.20
12769;DHT22;6448;48.916;8.990;2023-07-31T05:43:54;22.50;48.20
12769;DHT22;6448;48.916;8.990;2023-07-31T05:44:55;22.50;48.20
12769;DHT22;6448;48.916;8.990;2023-07-31T05:45:56;22.50;48.20
12769;DHT22;6448;48.916;8.990;2023-07-31T05:46:59;22.50;48.20
12769;DHT22;6448;48.916;8.990;2023-07-31T05:48:00;22.50;48.20
12769;DHT22;6448;48.916;8.990;2023-07-31T05:49:01;22.50;48.20
12769;DHT22;6448;48.916;8.990;2023-07-31T05:50:02;22.50;48.20
12769;DHT22;6448;48.916;8.990;2023-07-31T05:51:04;22.50;48.10
12769;DHT22;6448;48.916;8.990;2023-07-31T05:52:06;22.50;48.20
12769;DHT22;6448;48.916;8.990;2023-07-31T05:53:07;22.50;48.30
12769;DHT22;6448;48.916;8.990;2023-07-31T05:54:08;22.50;48.20
12769;DHT22;6448;48.916;8.990;2023-07-31T05:55:10;22.40;48.20
12769;DHT22;6448;48.916;8.990;2023-07-31T05:56:11;22.50;48.30
12769;DHT22;6448;48.916;8.990;2023-07-31T05:57:13;22.50;48.40
12769;DHT22;6448;48.916;8.990;2023-07-31T05:58:13;22.50;48.40
12769;DHT22;6448;48.916;8.990;2023-07-31T05:59:16;22.60;48.50
12769;DHT22;6448;48.916;8.990;2023-07-31T06:00:17;22.60;48.50
12769;DHT22;6448;48.916;8.990;2023-07-31T06:01:19;22.50;48.40
12769;DHT22;6448;48.916;8.990;2023-07-31T06:02:23;22.60;48.30
12769;DHT22;6448;48.916;8.990;2023-07-31T06:03:24;22.60;48.30
12769;DHT22;6448;48.916;8.990;2023-07-31T06:04:26;22.60;48.20
12769;DHT22;6448;48.916;8.990;2023-07-31T06:05:26;22.60;48.20
12769;DHT22;6448;48.916;8.990;2023-07-31T06:06:30;22.60;48.20
12769;DHT22;6448;48.916;8.990;2023-07-31T06:07:30;22.60;48.10
12769;DHT22;6448;48.916;8.990;2023-07-31T06:08:32;22.60;48.10
12769;DHT22;6448;48.916;8.990;2023-07-31T06:09:33;22.60;48.10
12769;DHT22;6448;48.916;8.990;2023-07-31T06:10:35;22.60;48.10
12769;DHT22;6448;48.916;8.990;2023-07-31T06:11:35;22.60;48.10
12769;DHT22;6448;48.916;8.990;2023-07-31T06:12:37;22.60;48.20
12769;DHT22;6448;48.916;8.990;2023-07-31T06:13:39;22.60;48.40
12769;DHT22;6448;48.916;8.990;2023-07-31T06:14:40;22.60;48.30
12769;DHT22;6448;48.916;8.990;2023-07-31T06:15:41;22.60;48.30
12769;DHT22;6448;48.916;8.990;2023-07-31T06:16:43;22.60;48.40
12769;DHT22;6448;48.916;8.990;2023-07-31T06:17:46;22.60;48.50
12769;DHT22;6448;48.916;8.990;2023-07-31T06:18:48;22.60;48.50
12769;DHT22;6448;48.916;8.990;2023-07-31T06:19:49;22.70;48.50
12769;DHT22;6448;48.916;8.990;2023-07-31T06:20:51;22.70;48.50
12769;DHT22;6448;48.916;8.990;2023-07-31T06:21:54;22.70;48.60
12769;DHT22;6448;48.916;8.990;2023-07-31T06:22:55;22.70;48.70
12769;DHT22;6448;48.916;8.990;2023-07-31T06:23:56;22.70;48.70
12769;DHT22;6448;48.916;8.990;2023-07-31T06:24:58;22.70;48.70
12769;DHT22;6448;48.916;8.990;2023-07-31T06:25:59;22.70;48.70
12769;DHT22;6448;48.916;8.990;2023-07-31T06:27:00;22.70;48.60
12769;DHT22;6448;48.916;8.990;2023-07-31T06:28:03;22.70;48.60
12769;DHT22;6448;48.916;8.990;2023-07-31T06:29:05;22.80;48.50
12769;DHT22;6448;48.916;8.990;2023-07-31T06:30:07;22.80;48.60
12769;DHT22;6448;48.916;8.990;2023-07-31T06:31:09;22.80;48.50
12769;DHT22;6448;48.916;8.990;2023-07-31T06:32:10;22.80;48.50
12769;DHT22;6448;48.916;8.990;2023-07-31T06:33:13;22.90;48.50
12769;DHT22;6448;48.916;8.990;2023-07-31T06:34:13;22.90;48.50
12769;DHT22;6448;48.916;8.990;2023-07-31T06:35:15;22.90;48.40
12769;DHT22;6448;48.916;8.990;2023-07-31T06:36:16;22.90;48.30
12769;DHT22;6448;48.916;8.990;2023-07-31T06:37:22;22.90;48.30